sensor_id;sensor_type;location;lat;lon;timestamp;P1;durP1;ratioP1;P2;durP2;ratioP2
17390;SDS011;8813;54.444;18.446;2024-03-22T00:02:10;8.13;;;7.43;;
17390;SDS011;8813;54.444;18.446;2024-03-22T00:04:36;7.23;;;5.00;;
17390;SDS011;8813;54.444;18.446;2024-03-22T00:07:05;4.17;;;4.07;;
17390;SDS011;8813;54.444;18.446;2024-03-22T00:09:31;4.23;;;4.13;;
17390;SDS011;8813;54.444;18.446;2024-03-22T00:11:57;7.50;;;5.13;;
17390;SDS011;8813;54.444;18.446;2024-03-22T00:14:23;9.73;;;6.00;;
17390;SDS011;8813;54.444;18.446;2024-03-22T00:16:50;3.90;;;3.80;;
17390;SDS011;8813;54.444;18.446;2024-03-22T00:19:16;3.90;;;3.80;;
17390;SDS011;8813;54.444;18.446;2024-03-22T00:21:43;6.00;;;5.80;;
17390;SDS011;8813;54.444;18.446;2024-03-22T00:24:11;4.57;;;4.47;;
17390;SDS011;8813;54.444;18.446;2024-03-22T00:26:38;4.10;;;4.00;;
17390;SDS011;8813;54.444;18.446;2024-03-22T00:29:04;4.10;;;4.00;;
17390;SDS011;8813;54.444;18.446;2024-03-22T00:31:31;3.80;;;3.70;;
17390;SDS011;8813;54.444;18.446;2024-03-22T00:33:57;7.73;;;7.33;;
17390;SDS011;8813;54.444;18.446;2024-03-22T00:36:24;3.80;;;3.70;;
17390;SDS011;8813;54.444;18.446;2024-03-22T00:38:50;4.83;;;4.73;;
17390;SDS011;8813;54.444;18.446;2024-03-22T00:41:18;6.87;;;6.13;;
17390;SDS011;8813;54.444;18.446;2024-03-22T00:43:44;4.03;;;3.93;;
17390;SDS011;8813;54.444;18.446;2024-03-22T00:46:11;4.00;;;3.90;;
17390;SDS011;8813;54.444;18.446;2024-03-22T00:48:37;6.37;;;5.87;;
17390;SDS011;8813;54.444;18.446;2024-03-22T00:51:04;4.80;;;4.70;;
17390;SDS011;8813;54.444;18.446;2024-03-22T00:53:30;4.50;;;4.40;;
17390;SDS011;8813;54.444;18.446;2024-03-22T00:55:57;5.20;;;5.00;;
17390;SDS011;8813;54.444;18.446;2024-03-22T00:58:26;7.57;;;7.07;;
17390;SDS011;8813;54.444;18.446;2024-03-22T01:00:53;5.20;;;5.03;;
17390;SDS011;8813;54.444;18.446;2024-03-22T01:03:19;4.00;;;3.90;;
17390;SDS011;8813;54.444;18.446;2024-03-22T01:05:46;5.20;;;5.03;;
17390;SDS011;8813;54.444;18.446;2024-03-22T01:08:12;4.47;;;4.37;;
17390;SDS011;8813;54.444;18.446;2024-03-22T01:10:40;6.13;;;5.77;;
17390;SDS011;8813;54.444;18.446;2024-03-22T01:13:06;6.97;;;5.03;;
17390;SDS011;8813;54.444;18.446;2024-03-22T01:15:34;4.70;;;4.60;;
17390;SDS011;8813;54.444;18.446;2024-03-22T01:18:02;5.23;;;5.13;;
17390;SDS011;8813;54.444;18.446;2024-03-22T01:20:29;4.97;;;4.80;;
17390;SDS011;8813;54.444;18.446;2024-03-22T01:22:56;4.87;;;4.67;;
17390;SDS011;8813;54.444;18.446;2024-03-22T01:25:23;5.70;;;5.40;;
17390;SDS011;8813;54.444;18.446;2024-03-22T01:27:49;6.70;;;6.07;;
17390;SDS011;8813;54.444;18.446;2024-03-22T01:30:16;9.33;;;8.30;;
17390;SDS011;8813;54.444;18.446;2024-03-22T01:32:46;4.63;;;4.53;;
17390;SDS011;8813;54.444;18.446;2024-03-22T01:35:14;5.90;;;5.60;;
17390;SDS011;8813;54.444;18.446;2024-03-22T01:37:40;4.00;;;3.90;;
17390;SDS011;8813;54.444;18.446;2024-03-22T01:40:07;4.30;;;4.20;;
17390;SDS011;8813;54.444;18.446;2024-03-22T01:42:34;4.50;;;4.40;;
17390;SDS011;8813;54.444;18.446;2024-03-22T01:45:02;5.27;;;5.00;;
17390;SDS011;8813;54.444;18.446;2024-03-22T01:47:28;4.90;;;4.47;;
17390;SDS011;8813;54.444;18.446;2024-03-22T01:49:57;6.27;;;5.77;;
17390;SDS011;8813;54.444;18.446;2024-03-22T01:52:24;4.80;;;4.70;;
17390;SDS011;8813;54.444;18.446;2024-03-22T01:54:51;3.90;;;3.80;;
17390;SDS011;8813;54.444;18.446;2024-03-22T01:57:16;6.63;;;6.33;;
17390;SDS011;8813;54.444;18.446;2024-03-22T01:59:44;4.17;;;4.07;;
17390;SDS011;8813;54.444;18.446;2024-03-22T02:02:18;8.80;;;8.10;;
17390;SDS011;8813;54.444;18.446;2024-03-22T02:04:45;6.27;;;5.97;;
17390;SDS011;8813;54.444;18.446;2024-03-22T02:07:15;4.17;;;4.07;;
17390;SDS011;8813;54.444;18.446;2024-03-22T02:09:44;4.33;;;4.23;;
17390;SDS011;8813;54.444;18.446;2024-03-22T02:12:11;5.47;;;5.13;;
17390;SDS011;8813;54.444;18.446;2024-03-22T02:14:38;4.00;;;3.90;;
17390;SDS011;8813;54.444;18.446;2024-03-22T02:17:04;5.30;;;5.10;;
17390;SDS011;8813;54.444;18.446;2024-03-22T02:19:31;4.30;;;4.20;;
17390;SDS011;8813;54.444;18.446;2024-03-22T02:21:57;4.10;;;4.00;;
17390;SDS011;8813;54.444;18.446;2024-03-22T02:24:25;4.37;;;4.27;;
17390;SDS011;8813;54.444;18.446;2024-03-22T02:26:51;3.88;;;3.78;;
17390;SDS011;8813;54.444;18.446;2024-03-22T02:29:18;4.03;;;3.93;;
17390;SDS011;8813;54.444;18.446;2024-03-22T02:31:44;3.70;;;3.60;;
17390;SDS011;8813;54.444;18.446;2024-03-22T02:34:11;4.83;;;4.73;;
17390;SDS011;8813;54.444;18.446;2024-03-22T02:36:37;4.00;;;3.90;;
17390;SDS011;8813;54.444;18.446;2024-03-22T02:39:04;3.97;;;3.87;;
17390;SDS011;8813;54.444;18.446;2024-03-22T02:41:31;3.70;;;3.60;;
17390;SDS011;8813;54.444;18.446;2024-03-22T02:43:58;4.65;;;4.35;;
17390;SDS011;8813;54.444;18.446;2024-03-22T02:46:24;3.47;;;3.40;;
17390;SDS011;8813;54.444;18.446;2024-03-22T02:48:51;4.53;;;4.43;;
17390;SDS011;8813;54.444;18.446;2024-03-22T02:51:17;3.47;;;3.40;;
17390;SDS011;8813;54.444;18.446;2024-03-22T02:53:44;3.97;;;3.87;;
17390;SDS011;8813;54.444;18.446;2024-03-22T02:56:10;4.53;;;4.33;;
17390;SDS011;8813;54.444;18.446;2024-03-22T02:58:38;8.10;;;5.50;;
17390;SDS011;8813;54.444;18.446;2024-03-22T03:01:04;4.03;;;3.93;;
17390;SDS011;8813;54.444;18.446;2024-03-22T03:03:31;3.83;;;3.72;;
17390;SDS011;8813;54.444;18.446;2024-03-22T03:05:57;3.40;;;3.40;;
17390;SDS011;8813;54.444;18.446;2024-03-22T03:08:24;3.80;;;3.70;;
17390;SDS011;8813;54.444;18.446;2024-03-22T03:10:49;4.90;;;4.80;;
17390;SDS011;8813;54.444;18.446;2024-03-22T03:13:16;4.70;;;4.13;;
17390;SDS011;8813;54.444;18.446;2024-03-22T03:15:44;4.17;;;4.07;;
17390;SDS011;8813;54.444;18.446;2024-03-22T03:18:11;5.60;;;5.20;;
17390;SDS011;8813;54.444;18.446;2024-03-22T03:20:36;3.20;;;3.20;;
17390;SDS011;8813;54.444;18.446;2024-03-22T03:23:04;3.63;;;3.53;;
17390;SDS011;8813;54.444;18.446;2024-03-22T03:25:29;3.70;;;3.60;;
17390;SDS011;8813;54.444;18.446;2024-03-22T03:27:56;3.60;;;3.50;;
17390;SDS011;8813;54.444;18.446;2024-03-22T03:30:22;3.30;;;3.30;;
17390;SDS011;8813;54.444;18.446;2024-03-22T03:32:51;3.50;;;3.40;;
17390;SDS011;8813;54.444;18.446;2024-03-22T03:35:17;4.90;;;4.57;;
17390;SDS011;8813;54.444;18.446;2024-03-22T03:37:44;4.10;;;3.90;;
17390;SDS011;8813;54.444;18.446;2024-03-22T03:40:10;3.77;;;3.67;;
17390;SDS011;8813;54.444;18.446;2024-03-22T03:42:38;6.03;;;5.78;;
17390;SDS011;8813;54.444;18.446;2024-03-22T03:45:04;4.63;;;4.53;;
17390;SDS011;8813;54.444;18.446;2024-03-22T03:47:32;3.90;;;3.80;;
17390;SDS011;8813;54.444;18.446;2024-03-22T03:49:59;4.00;;;3.90;;
17390;SDS011;8813;54.444;18.446;2024-03-22T03:52:27;3.90;;;3.70;;
17390;SDS011;8813;54.444;18.446;2024-03-22T03:54:53;3.10;;;3.10;;
17390;SDS011;8813;54.444;18.446;2024-03-22T03:57:20;5.47;;;3.20;;
17390;SDS011;8813;54.444;18.446;2024-03-22T03:59:46;3.35;;;3.28;;
17390;SDS011;8813;54.444;18.446;2024-03-22T04:02:12;3.50;;;3.40;;
17390;SDS011;8813;54.444;18.446;2024-03-22T04:04:38;5.10;;;4.90;;
17390;SDS011;8813;54.444;18.446;2024-03-22T04:07:07;3.88;;;3.67;;
17390;SDS011;8813;54.444;18.446;2024-03-22T04:09:33;4.30;;;4.17;;
17390;SDS011;8813;54.444;18.446;2024-03-22T04:12:00;4.83;;;4.27;;
17390;SDS011;8813;54.444;18.446;2024-03-22T04:14:26;3.20;;;3.20;;
17390;SDS011;8813;54.444;18.446;2024-03-22T04:16:53;6.07;;;4.20;;
17390;SDS011;8813;54.444;18.446;2024-03-22T04:19:21;3.60;;;3.50;;
17390;SDS011;8813;54.444;18.446;2024-03-22T04:21:49;3.58;;;3.47;;
17390;SDS011;8813;54.444;18.446;2024-03-22T04:24:16;4.25;;;4.05;;
17390;SDS011;8813;54.444;18.446;2024-03-22T04:26:43;4.10;;;4.00;;
17390;SDS011;8813;54.444;18.446;2024-03-22T04:29:09;3.40;;;3.40;;
17390;SDS011;8813;54.444;18.446;2024-03-22T04:31:36;4.63;;;4.43;;
17390;SDS011;8813;54.444;18.446;2024-03-22T04:34:02;6.73;;;6.33;;
17390;SDS011;8813;54.444;18.446;2024-03-22T04:36:30;5.70;;;5.43;;
17390;SDS011;8813;54.444;18.446;2024-03-22T04:38:57;3.70;;;3.60;;
17390;SDS011;8813;54.444;18.446;2024-03-22T04:41:25;3.60;;;3.50;;
17390;SDS011;8813;54.444;18.446;2024-03-22T04:43:51;6.60;;;6.07;;
17390;SDS011;8813;54.444;18.446;2024-03-22T04:46:18;4.10;;;4.00;;
17390;SDS011;8813;54.444;18.446;2024-03-22T04:48:44;3.20;;;3.20;;
17390;SDS011;8813;54.444;18.446;2024-03-22T04:51:11;3.97;;;3.77;;
17390;SDS011;8813;54.444;18.446;2024-03-22T04:53:36;7.50;;;6.93;;
17390;SDS011;8813;54.444;18.446;2024-03-22T04:56:04;3.30;;;3.10;;
17390;SDS011;8813;54.444;18.446;2024-03-22T04:58:37;4.53;;;4.30;;
17390;SDS011;8813;54.444;18.446;2024-03-22T05:01:03;4.70;;;4.30;;
17390;SDS011;8813;54.444;18.446;2024-03-22T05:03:32;3.50;;;3.40;;
17390;SDS011;8813;54.444;18.446;2024-03-22T05:05:58;4.30;;;4.10;;
17390;SDS011;8813;54.444;18.446;2024-03-22T05:08:28;5.47;;;5.07;;
17390;SDS011;8813;54.444;18.446;2024-03-22T05:10:54;3.97;;;3.87;;
17390;SDS011;8813;54.444;18.446;2024-03-22T05:13:21;3.85;;;3.72;;
17390;SDS011;8813;54.444;18.446;2024-03-22T05:15:48;3.53;;;3.42;;
17390;SDS011;8813;54.444;18.446;2024-03-22T05:18:15;5.73;;;5.17;;
17390;SDS011;8813;54.444;18.446;2024-03-22T05:20:41;4.15;;;4.05;;
17390;SDS011;8813;54.444;18.446;2024-03-22T05:23:08;4.93;;;4.67;;
17390;SDS011;8813;54.444;18.446;2024-03-22T05:25:34;4.30;;;4.20;;
17390;SDS011;8813;54.444;18.446;2024-03-22T05:28:01;5.50;;;5.20;;
17390;SDS011;8813;54.444;18.446;2024-03-22T05:30:27;4.37;;;4.17;;
17390;SDS011;8813;54.444;18.446;2024-03-22T05:32:56;5.63;;;5.27;;
17390;SDS011;8813;54.444;18.446;2024-03-22T05:35:22;3.85;;;3.75;;
17390;SDS011;8813;54.444;18.446;2024-03-22T05:37:49;5.63;;;5.33;;
17390;SDS011;8813;54.444;18.446;2024-03-22T05:40:16;5.40;;;5.13;;
17390;SDS011;8813;54.444;18.446;2024-03-22T05:42:43;3.60;;;3.50;;
17390;SDS011;8813;54.444;18.446;2024-03-22T05:45:09;5.83;;;5.20;;
17390;SDS011;8813;54.444;18.446;2024-03-22T05:47:36;7.50;;;7.10;;
17390;SDS011;8813;54.444;18.446;2024-03-22T05:50:04;4.50;;;4.30;;
17390;SDS011;8813;54.444;18.446;2024-03-22T05:52:33;5.88;;;5.45;;
17390;SDS011;8813;54.444;18.446;2024-03-22T05:54:59;5.72;;;5.53;;
17390;SDS011;8813;54.444;18.446;2024-03-22T05:57:26;3.80;;;3.70;;
17390;SDS011;8813;54.444;18.446;2024-03-22T05:59:52;3.80;;;3.70;;
17390;SDS011;8813;54.444;18.446;2024-03-22T06:02:20;5.68;;;5.38;;
17390;SDS011;8813;54.444;18.446;2024-03-22T06:04:46;4.95;;;4.70;;
17390;SDS011;8813;54.444;18.446;2024-03-22T06:07:14;5.88;;;5.43;;
17390;SDS011;8813;54.444;18.446;2024-03-22T06:09:42;4.87;;;4.57;;
17390;SDS011;8813;54.444;18.446;2024-03-22T06:12:12;5.30;;;5.07;;
17390;SDS011;8813;54.444;18.446;2024-03-22T06:14:38;4.33;;;4.23;;
17390;SDS011;8813;54.444;18.446;2024-03-22T06:17:06;3.60;;;3.50;;
17390;SDS011;8813;54.444;18.446;2024-03-22T06:19:33;5.93;;;5.70;;
17390;SDS011;8813;54.444;18.446;2024-03-22T06:22:01;4.10;;;4.00;;
17390;SDS011;8813;54.444;18.446;2024-03-22T06:24:29;3.90;;;3.80;;
17390;SDS011;8813;54.444;18.446;2024-03-22T06:26:56;4.22;;;3.97;;
17390;SDS011;8813;54.444;18.446;2024-03-22T06:29:22;4.55;;;4.40;;
17390;SDS011;8813;54.444;18.446;2024-03-22T06:31:49;4.63;;;4.43;;
17390;SDS011;8813;54.444;18.446;2024-03-22T06:34:17;6.40;;;6.00;;
17390;SDS011;8813;54.444;18.446;2024-03-22T06:36:45;4.97;;;4.77;;
17390;SDS011;8813;54.444;18.446;2024-03-22T06:39:11;4.65;;;4.55;;
17390;SDS011;8813;54.444;18.446;2024-03-22T06:41:39;4.32;;;4.22;;
17390;SDS011;8813;54.444;18.446;2024-03-22T06:44:05;4.20;;;4.10;;
17390;SDS011;8813;54.444;18.446;2024-03-22T06:46:33;4.40;;;4.30;;
17390;SDS011;8813;54.444;18.446;2024-03-22T06:48:59;3.60;;;3.50;;
17390;SDS011;8813;54.444;18.446;2024-03-22T06:51:26;5.65;;;5.35;;
17390;SDS011;8813;54.444;18.446;2024-03-22T06:53:52;5.68;;;5.38;;
17390;SDS011;8813;54.444;18.446;2024-03-22T06:56:19;3.97;;;3.88;;
17390;SDS011;8813;54.444;18.446;2024-03-22T06:58:47;4.28;;;3.95;;
17390;SDS011;8813;54.444;18.446;2024-03-22T07:01:13;4.00;;;3.90;;
17390;SDS011;8813;54.444;18.446;2024-03-22T07:03:41;5.38;;;5.10;;
17390;SDS011;8813;54.444;18.446;2024-03-22T07:06:10;7.72;;;7.13;;
17390;SDS011;8813;54.444;18.446;2024-03-22T07:08:37;9.45;;;6.13;;
17390;SDS011;8813;54.444;18.446;2024-03-22T07:11:04;6.27;;;5.03;;
17390;SDS011;8813;54.444;18.446;2024-03-22T07:13:31;5.43;;;4.97;;
17390;SDS011;8813;54.444;18.446;2024-03-22T07:15:59;5.20;;;4.90;;
17390;SDS011;8813;54.444;18.446;2024-03-22T07:18:25;3.88;;;3.78;;
17390;SDS011;8813;54.444;18.446;2024-03-22T07:20:52;8.00;;;7.30;;
17390;SDS011;8813;54.444;18.446;2024-03-22T07:23:18;8.15;;;7.43;;
17390;SDS011;8813;54.444;18.446;2024-03-22T07:25:45;4.37;;;4.27;;
17390;SDS011;8813;54.444;18.446;2024-03-22T07:28:13;7.85;;;6.97;;
17390;SDS011;8813;54.444;18.446;2024-03-22T07:30:40;3.83;;;3.72;;
17390;SDS011;8813;54.444;18.446;2024-03-22T07:33:10;4.97;;;4.65;;
17390;SDS011;8813;54.444;18.446;2024-03-22T07:35:38;6.45;;;5.95;;
17390;SDS011;8813;54.444;18.446;2024-03-22T07:38:04;3.78;;;3.67;;
17390;SDS011;8813;54.444;18.446;2024-03-22T07:40:31;3.70;;;3.60;;
17390;SDS011;8813;54.444;18.446;2024-03-22T07:42:58;6.40;;;6.10;;
17390;SDS011;8813;54.444;18.446;2024-03-22T07:45:27;10.13;;;8.40;;
17390;SDS011;8813;54.444;18.446;2024-03-22T07:47:53;6.22;;;5.63;;
17390;SDS011;8813;54.444;18.446;2024-03-22T07:50:21;6.93;;;6.53;;
17390;SDS011;8813;54.444;18.446;2024-03-22T07:52:47;3.70;;;3.60;;
17390;SDS011;8813;54.444;18.446;2024-03-22T07:55:14;4.40;;;4.30;;
17390;SDS011;8813;54.444;18.446;2024-03-22T07:57:40;5.93;;;5.65;;
17390;SDS011;8813;54.444;18.446;2024-03-22T08:00:07;3.35;;;3.25;;
17390;SDS011;8813;54.444;18.446;2024-03-22T08:02:34;5.03;;;4.72;;
17390;SDS011;8813;54.444;18.446;2024-03-22T08:05:01;3.00;;;3.00;;
17390;SDS011;8813;54.444;18.446;2024-03-22T08:07:29;4.45;;;4.22;;
17390;SDS011;8813;54.444;18.446;2024-03-22T08:09:56;5.50;;;5.20;;
17390;SDS011;8813;54.444;18.446;2024-03-22T08:12:24;5.95;;;5.40;;
17390;SDS011;8813;54.444;18.446;2024-03-22T08:14:50;5.30;;;4.85;;
17390;SDS011;8813;54.444;18.446;2024-03-22T08:17:16;8.38;;;7.57;;
17390;SDS011;8813;54.444;18.446;2024-03-22T08:19:43;4.60;;;4.30;;
17390;SDS011;8813;54.444;18.446;2024-03-22T08:22:09;5.85;;;5.30;;
17390;SDS011;8813;54.444;18.446;2024-03-22T08:24:38;4.60;;;4.25;;
17390;SDS011;8813;54.444;18.446;2024-03-22T08:27:04;5.30;;;4.97;;
17390;SDS011;8813;54.444;18.446;2024-03-22T08:29:31;7.43;;;6.72;;
17390;SDS011;8813;54.444;18.446;2024-03-22T08:31:57;6.85;;;6.35;;
17390;SDS011;8813;54.444;18.446;2024-03-22T08:34:24;3.88;;;3.67;;
17390;SDS011;8813;54.444;18.446;2024-03-22T08:36:50;4.90;;;4.57;;
17390;SDS011;8813;54.444;18.446;2024-03-22T08:39:17;4.25;;;4.05;;
17390;SDS011;8813;54.444;18.446;2024-03-22T08:41:45;5.85;;;5.45;;
17390;SDS011;8813;54.444;18.446;2024-03-22T08:44:12;8.18;;;6.82;;
17390;SDS011;8813;54.444;18.446;2024-03-22T08:46:38;5.47;;;4.97;;
17390;SDS011;8813;54.444;18.446;2024-03-22T08:49:05;3.97;;;3.75;;
17390;SDS011;8813;54.444;18.446;2024-03-22T08:51:31;7.30;;;6.15;;
17390;SDS011;8813;54.444;18.446;2024-03-22T08:53:58;3.97;;;3.78;;
17390;SDS011;8813;54.444;18.446;2024-03-22T08:56:25;4.90;;;4.47;;
17390;SDS011;8813;54.444;18.446;2024-03-22T08:58:54;6.53;;;5.82;;
17390;SDS011;8813;54.444;18.446;2024-03-22T09:01:20;4.80;;;4.40;;
17390;SDS011;8813;54.444;18.446;2024-03-22T09:03:47;8.02;;;6.38;;
17390;SDS011;8813;54.444;18.446;2024-03-22T09:06:16;4.82;;;4.47;;
17390;SDS011;8813;54.444;18.446;2024-03-22T09:08:43;4.38;;;4.07;;
17390;SDS011;8813;54.444;18.446;2024-03-22T09:11:09;3.13;;;3.03;;
17390;SDS011;8813;54.444;18.446;2024-03-22T09:13:36;5.00;;;4.63;;
17390;SDS011;8813;54.444;18.446;2024-03-22T09:16:03;4.57;;;4.30;;
17390;SDS011;8813;54.444;18.446;2024-03-22T09:18:31;3.60;;;3.40;;
17390;SDS011;8813;54.444;18.446;2024-03-22T09:20:58;4.35;;;4.05;;
17390;SDS011;8813;54.444;18.446;2024-03-22T09:23:25;6.00;;;5.50;;
17390;SDS011;8813;54.444;18.446;2024-03-22T09:25:51;3.83;;;3.53;;
17390;SDS011;8813;54.444;18.446;2024-03-22T09:28:18;5.80;;;5.03;;
17390;SDS011;8813;54.444;18.446;2024-03-22T09:30:45;5.43;;;4.00;;
17390;SDS011;8813;54.444;18.446;2024-03-22T09:33:15;5.45;;;4.82;;
17390;SDS011;8813;54.444;18.446;2024-03-22T09:35:43;5.47;;;4.95;;
17390;SDS011;8813;54.444;18.446;2024-03-22T09:38:10;3.90;;;3.65;;
17390;SDS011;8813;54.444;18.446;2024-03-22T09:40:37;3.15;;;3.00;;
17390;SDS011;8813;54.444;18.446;2024-03-22T09:43:06;7.47;;;5.20;;
17390;SDS011;8813;54.444;18.446;2024-03-22T09:45:34;4.82;;;4.50;;
17390;SDS011;8813;54.444;18.446;2024-03-22T09:48:01;7.68;;;6.90;;
17390;SDS011;8813;54.444;18.446;2024-03-22T09:50:28;6.32;;;5.80;;
17390;SDS011;8813;54.444;18.446;2024-03-22T09:52:56;6.07;;;5.47;;
17390;SDS011;8813;54.444;18.446;2024-03-22T09:55:22;6.50;;;4.22;;
17390;SDS011;8813;54.444;18.446;2024-03-22T09:57:50;7.13;;;6.50;;
17390;SDS011;8813;54.444;18.446;2024-03-22T10:00:19;8.82;;;7.95;;
17390;SDS011;8813;54.444;18.446;2024-03-22T10:02:47;10.80;;;9.80;;
17390;SDS011;8813;54.444;18.446;2024-03-22T10:05:14;7.85;;;7.65;;
17390;SDS011;8813;54.444;18.446;2024-03-22T10:07:44;9.23;;;8.85;;
17390;SDS011;8813;54.444;18.446;2024-03-22T10:10:10;10.75;;;9.88;;
17390;SDS011;8813;54.444;18.446;2024-03-22T10:12:39;8.65;;;8.40;;
17390;SDS011;8813;54.444;18.446;2024-03-22T10:15:05;8.13;;;7.85;;
17390;SDS011;8813;54.444;18.446;2024-03-22T10:17:34;10.02;;;9.55;;
17390;SDS011;8813;54.444;18.446;2024-03-22T10:20:01;9.77;;;8.93;;
17390;SDS011;8813;54.444;18.446;2024-03-22T10:22:28;6.93;;;6.63;;
17390;SDS011;8813;54.444;18.446;2024-03-22T10:24:55;8.48;;;8.18;;
17390;SDS011;8813;54.444;18.446;2024-03-22T10:27:26;7.65;;;7.32;;
17390;SDS011;8813;54.444;18.446;2024-03-22T10:29:52;11.82;;;10.80;;
17390;SDS011;8813;54.444;18.446;2024-03-22T10:32:19;8.50;;;8.10;;
17390;SDS011;8813;54.444;18.446;2024-03-22T10:34:46;8.23;;;7.72;;
17390;SDS011;8813;54.444;18.446;2024-03-22T10:37:15;7.07;;;6.72;;
17390;SDS011;8813;54.444;18.446;2024-03-22T10:39:41;11.13;;;9.98;;
17390;SDS011;8813;54.444;18.446;2024-03-22T10:42:10;6.63;;;5.22;;
17390;SDS011;8813;54.444;18.446;2024-03-22T10:44:37;10.35;;;7.97;;
17390;SDS011;8813;54.444;18.446;2024-03-22T10:47:06;9.13;;;8.55;;
17390;SDS011;8813;54.444;18.446;2024-03-22T10:49:36;12.13;;;8.43;;
17390;SDS011;8813;54.444;18.446;2024-03-22T10:52:04;7.55;;;7.10;;
17390;SDS011;8813;54.444;18.446;2024-03-22T10:54:33;6.38;;;6.18;;
17390;SDS011;8813;54.444;18.446;2024-03-22T10:57:01;9.38;;;8.63;;
17390;SDS011;8813;54.444;18.446;2024-03-22T10:59:34;7.55;;;7.13;;
17390;SDS011;8813;54.444;18.446;2024-03-22T11:02:02;8.85;;;8.35;;
17390;SDS011;8813;54.444;18.446;2024-03-22T11:04:30;8.57;;;7.95;;
17390;SDS011;8813;54.444;18.446;2024-03-22T11:06:57;13.55;;;9.38;;
17390;SDS011;8813;54.444;18.446;2024-03-22T11:09:23;11.35;;;10.43;;
17390;SDS011;8813;54.444;18.446;2024-03-22T11:11:51;9.30;;;8.68;;
17390;SDS011;8813;54.444;18.446;2024-03-22T11:14:17;8.55;;;8.18;;
17390;SDS011;8813;54.444;18.446;2024-03-22T11:16:47;11.63;;;10.90;;
17390;SDS011;8813;54.444;18.446;2024-03-22T11:19:13;8.98;;;8.48;;
17390;SDS011;8813;54.444;18.446;2024-03-22T11:21:40;8.52;;;7.95;;
17390;SDS011;8813;54.444;18.446;2024-03-22T11:24:06;12.40;;;11.02;;
17390;SDS011;8813;54.444;18.446;2024-03-22T11:26:34;7.28;;;6.97;;
17390;SDS011;8813;54.444;18.446;2024-03-22T11:29:00;9.18;;;7.97;;
17390;SDS011;8813;54.444;18.446;2024-03-22T11:31:27;7.10;;;6.72;;
17390;SDS011;8813;54.444;18.446;2024-03-22T11:33:55;8.73;;;7.97;;
17390;SDS011;8813;54.444;18.446;2024-03-22T11:36:23;5.70;;;5.50;;
17390;SDS011;8813;54.444;18.446;2024-03-22T11:38:50;12.50;;;6.78;;
17390;SDS011;8813;54.444;18.446;2024-03-22T11:41:19;8.90;;;8.13;;
17390;SDS011;8813;54.444;18.446;2024-03-22T11:43:47;6.93;;;6.53;;
17390;SDS011;8813;54.444;18.446;2024-03-22T11:46:15;7.50;;;7.00;;
17390;SDS011;8813;54.444;18.446;2024-03-22T11:48:42;10.52;;;9.68;;
17390;SDS011;8813;54.444;18.446;2024-03-22T11:51:11;11.73;;;11.02;;
17390;SDS011;8813;54.444;18.446;2024-03-22T11:53:37;13.70;;;12.55;;
17390;SDS011;8813;54.444;18.446;2024-03-22T11:56:04;9.13;;;8.70;;
17390;SDS011;8813;54.444;18.446;2024-03-22T11:58:30;11.82;;;11.00;;
17390;SDS011;8813;54.444;18.446;2024-03-22T12:00:57;11.63;;;11.02;;
17390;SDS011;8813;54.444;18.446;2024-03-22T12:03:23;11.65;;;10.80;;
17390;SDS011;8813;54.444;18.446;2024-03-22T12:05:52;8.20;;;7.90;;
17390;SDS011;8813;54.444;18.446;2024-03-22T12:08:19;9.05;;;8.35;;
17390;SDS011;8813;54.444;18.446;2024-03-22T12:10:46;8.93;;;8.20;;
17390;SDS011;8813;54.444;18.446;2024-03-22T12:13:12;8.10;;;7.80;;
17390;SDS011;8813;54.444;18.446;2024-03-22T12:15:39;35.35;;;8.82;;
17390;SDS011;8813;54.444;18.446;2024-03-22T12:18:05;8.73;;;8.05;;
17390;SDS011;8813;54.444;18.446;2024-03-22T12:20:34;10.65;;;9.40;;
17390;SDS011;8813;54.444;18.446;2024-03-22T12:23:00;6.93;;;6.43;;
17390;SDS011;8813;54.444;18.446;2024-03-22T12:25:30;9.35;;;8.20;;
17390;SDS011;8813;54.444;18.446;2024-03-22T12:27:57;4.88;;;4.57;;
17390;SDS011;8813;54.444;18.446;2024-03-22T12:30:27;5.93;;;5.60;;
17390;SDS011;8813;54.444;18.446;2024-03-22T12:32:53;7.35;;;6.65;;
17390;SDS011;8813;54.444;18.446;2024-03-22T12:35:20;5.47;;;4.97;;
17390;SDS011;8813;54.444;18.446;2024-03-22T12:37:46;5.45;;;4.95;;
17390;SDS011;8813;54.444;18.446;2024-03-22T12:40:13;5.35;;;5.15;;
17390;SDS011;8813;54.444;18.446;2024-03-22T12:42:40;5.15;;;4.85;;
17390;SDS011;8813;54.444;18.446;2024-03-22T12:45:08;4.32;;;3.97;;
17390;SDS011;8813;54.444;18.446;2024-03-22T12:47:34;4.53;;;4.28;;
17390;SDS011;8813;54.444;18.446;2024-03-22T12:50:01;7.80;;;6.95;;
17390;SDS011;8813;54.444;18.446;2024-03-22T12:52:27;6.13;;;5.63;;
17390;SDS011;8813;54.444;18.446;2024-03-22T12:54:54;5.43;;;5.00;;
17390;SDS011;8813;54.444;18.446;2024-03-22T12:57:20;4.75;;;4.55;;
17390;SDS011;8813;54.444;18.446;2024-03-22T12:59:48;8.55;;;4.40;;
17390;SDS011;8813;54.444;18.446;2024-03-22T13:02:15;4.68;;;4.38;;
17390;SDS011;8813;54.444;18.446;2024-03-22T13:04:42;4.38;;;4.10;;
17390;SDS011;8813;54.444;18.446;2024-03-22T13:07:09;4.07;;;3.83;;
17390;SDS011;8813;54.444;18.446;2024-03-22T13:09:35;4.30;;;4.10;;
17390;SDS011;8813;54.444;18.446;2024-03-22T13:12:02;3.83;;;3.60;;
17390;SDS011;8813;54.444;18.446;2024-03-22T13:14:28;4.35;;;4.15;;
17390;SDS011;8813;54.444;18.446;2024-03-22T13:16:56;3.47;;;3.38;;
17390;SDS011;8813;54.444;18.446;2024-03-22T13:19:23;3.60;;;3.30;;
17390;SDS011;8813;54.444;18.446;2024-03-22T13:21:50;4.88;;;4.65;;
17390;SDS011;8813;54.444;18.446;2024-03-22T13:24:15;4.70;;;4.40;;
17390;SDS011;8813;54.444;18.446;2024-03-22T13:26:45;5.05;;;4.75;;
17390;SDS011;8813;54.444;18.446;2024-03-22T13:29:11;3.50;;;3.40;;
17390;SDS011;8813;54.444;18.446;2024-03-22T13:31:39;9.07;;;4.78;;
17390;SDS011;8813;54.444;18.446;2024-03-22T13:34:06;3.88;;;3.75;;
17390;SDS011;8813;54.444;18.446;2024-03-22T13:36:33;5.88;;;5.47;;
17390;SDS011;8813;54.444;18.446;2024-03-22T13:39:03;4.68;;;4.57;;
17390;SDS011;8813;54.444;18.446;2024-03-22T13:41:30;4.20;;;4.10;;
17390;SDS011;8813;54.444;18.446;2024-03-22T13:43:56;6.60;;;6.18;;
17390;SDS011;8813;54.444;18.446;2024-03-22T13:46:23;8.13;;;6.70;;
17390;SDS011;8813;54.444;18.446;2024-03-22T13:48:51;5.53;;;4.80;;
17390;SDS011;8813;54.444;18.446;2024-03-22T13:51:20;4.68;;;4.32;;
17390;SDS011;8813;54.444;18.446;2024-03-22T13:53:46;4.10;;;3.90;;
17390;SDS011;8813;54.444;18.446;2024-03-22T13:56:13;3.97;;;3.85;;
17390;SDS011;8813;54.444;18.446;2024-03-22T13:58:39;5.22;;;4.75;;
17390;SDS011;8813;54.444;18.446;2024-03-22T14:01:07;3.95;;;3.85;;
17390;SDS011;8813;54.444;18.446;2024-03-22T14:03:33;5.85;;;5.32;;
17390;SDS011;8813;54.444;18.446;2024-03-22T14:06:00;8.85;;;6.75;;
17390;SDS011;8813;54.444;18.446;2024-03-22T14:08:29;4.93;;;4.55;;
17390;SDS011;8813;54.444;18.446;2024-03-22T14:10:56;4.97;;;4.63;;
17390;SDS011;8813;54.444;18.446;2024-03-22T14:13:22;6.38;;;5.28;;
17390;SDS011;8813;54.444;18.446;2024-03-22T14:15:49;4.10;;;3.75;;
17390;SDS011;8813;54.444;18.446;2024-03-22T14:18:16;7.60;;;5.90;;
17390;SDS011;8813;54.444;18.446;2024-03-22T14:20:43;5.38;;;4.97;;
17390;SDS011;8813;54.444;18.446;2024-03-22T14:23:08;5.22;;;4.95;;
17390;SDS011;8813;54.444;18.446;2024-03-22T14:25:37;6.03;;;5.47;;
17390;SDS011;8813;54.444;18.446;2024-03-22T14:28:03;6.68;;;6.18;;
17390;SDS011;8813;54.444;18.446;2024-03-22T14:30:30;5.50;;;5.00;;
17390;SDS011;8813;54.444;18.446;2024-03-22T14:32:56;2.40;;;2.40;;
17390;SDS011;8813;54.444;18.446;2024-03-22T14:35:23;9.98;;;8.70;;
17390;SDS011;8813;54.444;18.446;2024-03-22T14:37:50;7.78;;;5.25;;
17390;SDS011;8813;54.444;18.446;2024-03-22T14:40:18;4.10;;;3.70;;
17390;SDS011;8813;54.444;18.446;2024-03-22T14:42:47;6.20;;;5.70;;
17390;SDS011;8813;54.444;18.446;2024-03-22T14:45:15;4.15;;;3.85;;